Time,TemperatureF,DewpointF,PressureIn,WindDirection,WindDirectionDegrees,WindSpeedMPH,WindSpeedGustMPH,Humidity,HourlyPrecipIn,Conditions,Clouds,dailyrainin,SoftwareType,DateUTC
2013-04-20 00:03:00,41.0,27.0,-100.00,South,184,17.0,24.0,53,0.00,,,-99.99,,2013-04-20 04:03:00,
2013-04-20 00:12:00,41.0,27.0,-100.00,South,183,16.0,24.0,55,0.00,,,-99.99,,2013-04-20 04:12:00,
2013-04-20 00:23:00,41.0,27.0,-100.00,South,169,12.0,24.0,54,0.00,,,-99.99,,2013-04-20 04:23:00,
2013-04-20 00:33:00,42.0,27.0,-100.00,SE,136,11.0,24.0,54,0.00,,,-99.99,,2013-04-20 04:33:00,
2013-04-20 00:42:00,42.0,27.0,-100.00,South,175,12.0,24.0,53,0.00,,,-99.99,,2013-04-20 04:42:00,
2013-04-20 00:52:00,41.0,27.0,-100.00,SSE,168,12.0,24.0,55,0.00,,,-99.99,,2013-04-20 04:52:00,
2013-04-20 01:02:00,41.0,27.0,-100.00,SSE,159,14.0,24.0,54,0.00,,,-99.99,,2013-04-20 05:02:00,
2013-04-20 01:12:00,41.0,27.0,-100.00,SSE,155,11.0,24.0,54,0.00,,,-99.99,,2013-04-20 05:12:00,
2013-04-20 01:22:00,41.0,27.0,-100.00,South,182,9.0,24.0,56,0.00,,,-99.99,,2013-04-20 05:22:00,
2013-04-20 01:32:00,42.0,32.0,-100.00,South,184,14.0,24.0,63,1.14,,,-99.99,,2013-04-20 05:32:00,
2013-04-20 01:43:00,40.0,32.0,-100.00,South,183,21.0,24.0,73,28.35,,,-99.99,,2013-04-20 05:43:00,
2013-04-20 01:52:00,40.0,32.0,-100.00,SSW,194,17.0,24.0,72,0.00,,,-99.99,,2013-04-20 05:52:00,
2013-04-20 02:02:00,38.0,30.0,-100.00,SSE,168,17.0,24.0,73,0.00,,,-99.99,,2013-04-20 06:02:00,
2013-04-20 02:12:00,38.0,32.0,-100.00,SSE,151,11.0,24.0,76,0.00,,,-99.99,,2013-04-20 06:12:00,
2013-04-20 02:21:00,37.0,30.0,-100.00,SE,145,11.0,24.0,76,0.00,,,-99.99,,2013-04-20 06:21:00,
2013-04-20 02:32:00,38.0,30.0,-100.00,South,177,11.0,24.0,73,0.00,,,-99.99,,2013-04-20 06:32:00,
2013-04-20 02:42:00,38.0,30.0,-100.00,SSE,162,14.0,24.0,71,0.00,,,-99.99,,2013-04-20 06:42:00,
2013-04-20 02:52:00,38.0,30.0,-100.00,South,175,13.0,24.0,71,0.00,,,-99.99,,2013-04-20 06:52:00,
2013-04-20 03:01:00,40.0,32.0,-100.00,SSW,201,16.0,24.0,71,0.00,,,-99.99,,2013-04-20 07:01:00,
2013-04-20 03:11:00,38.0,30.0,-100.00,SSE,159,12.0,24.0,69,0.00,,,-99.99,,2013-04-20 07:11:00,
2013-04-20 03:22:00,38.0,30.0,-100.00,SSE,165,10.0,24.0,71,0.00,,,-99.99,,2013-04-20 07:22:00,
2013-04-20 03:32:00,38.0,30.0,-100.00,South,170,9.0,24.0,72,0.00,,,-99.99,,2013-04-20 07:32:00,
2013-04-20 03:42:00,38.0,32.0,-100.00,SE,138,11.0,24.0,75,0.00,,,-99.99,,2013-04-20 07:42:00,
2013-04-20 03:52:00,37.0,32.0,-100.00,SSE,158,7.0,24.0,78,0.00,,,-99.99,,2013-04-20 07:52:00,
2013-04-20 04:02:00,37.0,32.0,-100.00,SE,132,9.0,24.0,78,0.00,,,-99.99,,2013-04-20 08:02:00,
2013-04-20 04:11:00,38.0,32.0,-100.00,SSE,155,9.0,24.0,77,0.00,,,-99.99,,2013-04-20 08:11:00,
2013-04-20 04:21:00,38.0,30.0,-100.00,South,186,12.0,24.0,73,1.14,,,-99.99,,2013-04-20 08:21:00,
2013-04-20 04:32:00,38.0,30.0,-100.00,South,186,11.0,24.0,69,0.00,,,-99.99,,2013-04-20 08:32:00,
2013-04-20 04:42:00,38.0,28.0,-100.00,South,189,14.0,24.0,64,0.00,,,-99.99,,2013-04-20 08:42:00,
2013-04-20 04:52:00,38.0,28.0,-100.00,SSE,165,14.0,24.0,64,0.00,,,-99.99,,2013-04-20 08:52:00,
2013-04-20 05:02:00,38.0,28.0,-100.00,South,180,11.0,24.0,66,0.00,,,-99.99,,2013-04-20 09:02:00,
2013-04-20 05:12:00,38.0,28.0,-100.00,South,172,14.0,24.0,64,0.00,,,-99.99,,2013-04-20 09:12:00,
2013-04-20 05:22:00,38.0,28.0,-100.00,South,170,16.0,24.0,64,0.00,,,-99.99,,2013-04-20 09:22:00,
2013-04-20 05:33:00,38.0,27.0,-100.00,South,187,15.0,24.0,63,0.00,,,-99.99,,2013-04-20 09:33:00,
2013-04-20 05:43:00,38.0,28.0,-100.00,SSE,165,14.0,24.0,64,0.00,,,-99.99,,2013-04-20 09:43:00,
2013-04-20 05:53:00,38.0,28.0,-100.00,South,184,14.0,24.0,64,0.00,,,-99.99,,2013-04-20 09:53:00,
2013-04-20 06:03:00,38.0,28.0,-100.00,South,173,14.0,24.0,64,0.00,,,-99.99,,2013-04-20 10:03:00,
2013-04-20 06:13:00,38.0,28.0,-100.00,South,176,13.0,24.0,64,0.00,,,-99.99,,2013-04-20 10:13:00,
2013-04-20 06:23:00,38.0,28.0,-100.00,SSW,192,14.0,24.0,64,0.00,,,-99.99,,2013-04-20 10:23:00,
2013-04-20 06:33:00,38.0,28.0,-100.00,SSW,196,14.0,24.0,64,0.00,,,-99.99,,2013-04-20 10:33:00,
2013-04-20 06:42:00,36.0,32.0,-100.00,South,189,12.0,24.0,84,1.14,,,-99.99,,2013-04-20 10:42:00,
2013-04-20 06:52:00,35.0,32.0,-100.00,SSW,210,20.0,24.0,90,4.53,,,-99.99,,2013-04-20 10:52:00,
2013-04-20 07:02:00,35.0,32.0,-100.00,South,182,14.0,24.0,91,0.00,,,-99.99,,2013-04-20 11:02:00,
2013-04-20 07:12:00,33.0,30.0,-100.00,South,176,12.0,24.0,90,0.00,,,-99.99,,2013-04-20 11:12:00,
2013-04-20 07:23:00,33.0,32.0,-100.00,South,172,9.0,24.0,89,0.00,,,-99.99,,2013-04-20 11:23:00,
2013-04-20 07:32:00,34.0,32.0,-100.00,South,183,8.0,24.0,89,0.00,,,-99.99,,2013-04-20 11:32:00,
2013-04-20 07:42:00,35.0,32.0,-100.00,South,176,10.0,24.0,86,0.00,,,-99.99,,2013-04-20 11:42:00,
2013-04-20 07:52:00,36.0,32.0,-100.00,SSW,193,9.0,24.0,84,0.00,,,-99.99,,2013-04-20 11:52:00,
2013-04-20 08:02:00,36.0,32.0,-100.00,South,184,11.0,24.0,80,0.00,,,-99.99,,2013-04-20 12:02:00,
2013-04-20 08:11:00,36.0,30.0,-100.00,SSE,160,11.0,24.0,76,0.00,,,-99.99,,2013-04-20 12:11:00,
2013-04-20 08:23:00,36.0,28.0,-100.00,South,187,13.0,24.0,72,0.00,,,-99.99,,2013-04-20 12:23:00,
2013-04-20 08:32:00,37.0,28.0,-100.00,South,186,16.0,24.0,69,0.00,,,-99.99,,2013-04-20 12:32:00,
2013-04-20 08:42:00,35.0,30.0,-100.00,SSW,206,14.0,24.0,80,6.22,,,-99.99,,2013-04-20 12:42:00,
2013-04-20 08:52:00,34.0,30.0,-100.00,SSW,206,16.0,24.0,85,1.14,,,-99.99,,2013-04-20 12:52:00,
2013-04-20 09:02:00,34.0,30.0,-100.00,SSW,193,12.0,24.0,85,2.83,,,-99.99,,2013-04-20 13:02:00,
2013-04-20 09:11:00,35.0,32.0,-100.00,SSW,206,12.0,24.0,85,1.14,,,-99.99,,2013-04-20 13:11:00,
2013-04-20 09:22:00,35.0,32.0,-100.00,South,189,11.0,24.0,84,0.00,,,-99.99,,2013-04-20 13:22:00,
2013-04-20 09:32:00,36.0,32.0,-100.00,South,190,9.0,24.0,84,2.83,,,-99.99,,2013-04-20 13:32:00,
2013-04-20 09:42:00,35.0,32.0,-100.00,SSW,192,9.0,24.0,84,0.00,,,-99.99,,2013-04-20 13:42:00,
2013-04-20 09:52:00,35.0,32.0,-100.00,SSW,192,9.0,24.0,86,1.14,,,-99.99,,2013-04-20 13:52:00,
2013-04-20 10:02:00,36.0,32.0,-100.00,South,186,9.0,24.0,80,0.00,,,-99.99,,2013-04-20 14:02:00,
2013-04-20 10:11:00,38.0,30.0,-100.00,SSW,213,10.0,24.0,73,0.00,,,-99.99,,2013-04-20 14:11:00,
2013-04-20 10:21:00,38.0,30.0,-100.00,SW,220,11.0,24.0,72,0.00,,,-99.99,,2013-04-20 14:21:00,
2013-04-20 10:32:00,37.0,30.0,-100.00,South,189,9.0,24.0,72,1.14,,,-99.99,,2013-04-20 14:32:00,
2013-04-20 10:42:00,37.0,28.0,-100.00,South,177,17.0,24.0,66,1.14,,,-99.99,,2013-04-20 14:42:00,
2013-04-20 10:51:00,36.0,25.0,-100.00,South,190,13.0,24.0,63,0.00,,,-99.99,,2013-04-20 14:51:00,
2013-04-20 11:02:00,36.0,25.0,-100.00,SSW,192,14.0,24.0,63,0.00,,,-99.99,,2013-04-20 15:02:00,
2013-04-20 11:12:00,36.0,25.0,-100.00,SSW,201,11.0,24.0,63,0.00,,,-99.99,,2013-04-20 15:12:00,
2013-04-20 11:21:00,36.0,27.0,-100.00,SSW,203,12.0,24.0,68,0.00,,,-99.99,,2013-04-20 15:21:00,
2013-04-20 11:33:00,36.0,27.0,-100.00,SSW,210,11.0,24.0,64,0.00,,,-99.99,,2013-04-20 15:33:00,
2013-04-20 11:43:00,36.0,25.0,-100.00,SW,220,12.0,24.0,63,0.00,,,-99.99,,2013-04-20 15:43:00,
2013-04-20 11:53:00,36.0,25.0,-100.00,SW,231,10.0,24.0,63,0.00,,,-99.99,,2013-04-20 15:53:00,
2013-04-20 12:03:00,36.0,25.0,-100.00,SSW,207,12.0,24.0,62,0.00,,,-99.99,,2013-04-20 16:03:00,
2013-04-20 12:12:00,36.0,25.0,-100.00,WSW,244,11.0,24.0,63,0.00,,,-99.99,,2013-04-20 16:12:00,
2013-04-20 12:23:00,36.0,27.0,-100.00,South,182,8.0,24.0,64,0.00,,,-99.99,,2013-04-20 16:23:00,
2013-04-20 12:33:00,37.0,27.0,-100.00,SW,220,9.0,24.0,63,0.00,,,-99.99,,2013-04-20 16:33:00,
2013-04-20 12:42:00,36.0,25.0,-100.00,WSW,251,13.0,24.0,59,0.00,,,-99.99,,2013-04-20 16:42:00,
2013-04-20 12:52:00,36.0,23.0,-100.00,SW,223,16.0,24.0,58,0.00,,,-99.99,,2013-04-20 16:52:00,
2013-04-20 13:02:00,36.0,23.0,-100.00,South,187,17.0,24.0,56,0.00,,,-99.99,,2013-04-20 17:02:00,
2013-04-20 13:12:00,36.0,23.0,-100.00,West,265,11.0,24.0,58,0.00,,,-99.99,,2013-04-20 17:12:00,
2013-04-20 13:23:00,36.0,23.0,-100.00,South,186,10.0,24.0,55,0.00,,,-99.99,,2013-04-20 17:23:00,
2013-04-20 13:33:00,36.0,21.0,-100.00,SSW,208,8.0,24.0,54,0.00,,,-99.99,,2013-04-20 17:33:00,
2013-04-20 13:42:00,37.0,23.0,-100.00,SSE,151,13.0,24.0,54,0.00,,,-99.99,,2013-04-20 17:42:00,
2013-04-20 13:52:00,36.0,23.0,-100.00,SSW,210,11.0,24.0,54,0.00,,,-99.99,,2013-04-20 17:52:00,
2013-04-20 14:02:00,38.0,23.0,-100.00,SSW,197,9.0,24.0,54,0.00,,,-99.99,,2013-04-20 18:02:00,
2013-04-20 14:13:00,37.0,21.0,-100.00,South,180,12.0,24.0,51,0.00,,,-99.99,,2013-04-20 18:13:00,
2013-04-20 14:22:00,37.0,23.0,-100.00,SSW,200,13.0,24.0,53,0.00,,,-99.99,,2013-04-20 18:22:00,
2013-04-20 14:32:00,38.0,25.0,-100.00,SSW,199,14.0,24.0,56,0.00,,,-99.99,,2013-04-20 18:32:00,
2013-04-20 14:42:00,38.0,21.0,-100.00,SW,232,12.0,24.0,49,0.00,,,-99.99,,2013-04-20 18:42:00,
2013-04-20 14:52:00,37.0,21.0,-100.00,SW,228,16.0,24.0,51,0.00,,,-99.99,,2013-04-20 18:52:00,
2013-04-20 15:02:00,38.0,23.0,-100.00,South,187,20.0,24.0,53,0.00,,,-99.99,,2013-04-20 19:02:00,
2013-04-20 15:11:00,39.0,23.0,-100.00,South,187,10.0,24.0,51,0.00,,,-99.99,,2013-04-20 19:11:00,
2013-04-20 15:22:00,39.0,25.0,-100.00,SSW,206,9.0,24.0,53,0.00,,,-99.99,,2013-04-20 19:22:00,
2013-04-20 15:32:00,39.0,21.0,-100.00,SW,220,10.0,24.0,47,0.00,,,-99.99,,2013-04-20 19:32:00,
2013-04-20 15:42:00,39.0,25.0,-100.00,SW,214,8.0,24.0,53,0.00,,,-99.99,,2013-04-20 19:42:00,
2013-04-20 15:52:00,38.0,21.0,-100.00,South,170,9.0,24.0,49,0.00,,,-99.99,,2013-04-20 19:52:00,
2013-04-20 16:02:00,38.0,23.0,-100.00,SW,225,7.0,24.0,51,0.00,,,-99.99,,2013-04-20 20:02:00,
2013-04-20 16:12:00,39.0,21.0,-100.00,South,186,8.0,24.0,47,0.00,,,-99.99,,2013-04-20 20:12:00,
2013-04-20 16:22:00,40.0,27.0,-100.00,SSW,207,11.0,24.0,55,0.00,,,-99.99,,2013-04-20 20:22:00,
2013-04-20 16:32:00,38.0,19.0,-100.00,WSW,254,9.0,24.0,46,0.00,,,-99.99,,2013-04-20 20:32:00,
2013-04-20 16:42:00,38.0,21.0,-100.00,WSW,247,9.0,24.0,50,0.00,,,-99.99,,2013-04-20 20:42:00,
2013-04-20 16:52:00,40.0,25.0,-100.00,SW,216,11.0,24.0,54,0.00,,,-99.99,,2013-04-20 20:52:00,
2013-04-20 17:01:00,40.0,23.0,-100.00,South,189,9.0,24.0,47,0.00,,,-99.99,,2013-04-20 21:01:00,
2013-04-20 17:12:00,39.0,19.0,-100.00,SSW,197,11.0,24.0,45,0.00,,,-99.99,,2013-04-20 21:12:00,
2013-04-20 17:22:00,40.0,21.0,-100.00,SSW,204,9.0,24.0,44,0.00,,,-99.99,,2013-04-20 21:22:00,
2013-04-20 17:33:00,40.0,21.0,-100.00,WNW,299,9.0,24.0,47,0.00,,,-99.99,,2013-04-20 21:33:00,
2013-04-20 17:43:00,39.0,23.0,-100.00,SSW,193,8.0,24.0,50,0.00,,,-99.99,,2013-04-20 21:43:00,
2013-04-20 17:52:00,39.0,23.0,-100.00,South,190,6.0,24.0,49,0.00,,,-99.99,,2013-04-20 21:52:00,
2013-04-20 18:03:00,40.0,21.0,-100.00,South,190,9.0,24.0,46,0.00,,,-99.99,,2013-04-20 22:03:00,
2013-04-20 18:12:00,40.0,23.0,-100.00,WSW,255,9.0,24.0,47,0.00,,,-99.99,,2013-04-20 22:12:00,
2013-04-20 18:23:00,42.0,23.0,-100.00,SW,217,6.0,24.0,46,0.00,,,-99.99,,2013-04-20 22:23:00,
2013-04-20 18:32:00,40.0,21.0,-100.00,WSW,241,7.0,24.0,45,0.00,,,-99.99,,2013-04-20 22:32:00,
2013-04-20 18:42:00,40.0,23.0,-100.00,SSW,211,7.0,24.0,50,0.00,,,-99.99,,2013-04-20 22:42:00,
2013-04-20 18:52:00,40.0,23.0,-100.00,SSW,201,6.0,24.0,50,0.00,,,-99.99,,2013-04-20 22:52:00,
2013-04-20 19:02:00,40.0,23.0,-100.00,WSW,251,7.0,24.0,49,0.00,,,-99.99,,2013-04-20 23:02:00,
2013-04-20 19:12:00,39.0,23.0,-100.00,WSW,244,6.0,24.0,51,0.00,,,-99.99,,2013-04-20 23:12:00,
2013-04-20 19:22:00,39.0,25.0,-100.00,SW,221,7.0,24.0,53,0.00,,,-99.99,,2013-04-20 23:22:00,
2013-04-20 19:32:00,40.0,25.0,-100.00,WSW,247,7.0,24.0,54,0.00,,,-99.99,,2013-04-20 23:32:00,
2013-04-20 19:42:00,38.0,23.0,-100.00,SSW,213,4.0,24.0,53,0.00,,,-99.99,,2013-04-20 23:42:00,
2013-04-20 19:52:00,38.0,25.0,-100.00,SW,221,2.0,24.0,55,0.00,,,-99.99,,2013-04-20 23:52:00,
2013-04-20 20:01:00,38.0,25.0,-100.00,WSW,252,5.0,24.0,59,0.00,,,-99.99,,2013-04-21 00:01:00,
2013-04-20 20:12:00,37.0,25.0,-100.00,SW,235,4.0,24.0,60,0.00,,,-99.99,,2013-04-21 00:12:00,
2013-04-20 20:22:00,37.0,25.0,-100.00,SW,235,4.0,4.0,60,0.00,,,-99.99,,2013-04-21 00:22:00,
2013-04-20 20:32:00,37.0,25.0,-100.00,SSW,193,4.0,4.0,59,0.00,,,-99.99,,2013-04-21 00:32:00,
2013-04-20 20:42:00,36.0,25.0,-100.00,WSW,244,3.0,4.0,60,0.00,,,-99.99,,2013-04-21 00:42:00,
2013-04-20 20:52:00,37.0,25.0,-100.00,SSW,211,2.0,4.0,59,0.00,,,-99.99,,2013-04-21 00:52:00,
2013-04-20 21:01:00,36.0,25.0,-100.00,SSW,208,1.0,4.0,59,0.00,,,-99.99,,2013-04-21 01:01:00,
2013-04-20 21:12:00,35.0,23.0,-100.00,West,279,1.0,4.0,59,0.00,,,-99.99,,2013-04-21 01:12:00,
2013-04-20 21:22:00,36.0,23.0,-100.00,WSW,245,1.0,4.0,58,0.00,,,-99.99,,2013-04-21 01:22:00,
2013-04-20 21:32:00,35.0,23.0,-100.00,SW,224,1.0,4.0,58,0.00,,,-99.99,,2013-04-21 01:32:00,
2013-04-20 21:42:00,36.0,23.0,-100.00,SSW,196,0.0,4.0,58,0.00,,,-99.99,,2013-04-21 01:42:00,
2013-04-20 21:52:00,36.0,23.0,-100.00,SW,224,0.0,4.0,59,0.00,,,-99.99,,2013-04-21 01:52:00,
2013-04-20 22:02:00,36.0,23.0,-100.00,SW,224,0.0,4.0,59,0.00,,,-99.99,,2013-04-21 02:02:00,
2013-04-20 22:11:00,35.0,23.0,-100.00,South,189,0.0,4.0,58,0.00,,,-99.99,,2013-04-21 02:11:00,
2013-04-20 22:22:00,36.0,25.0,-100.00,South,184,0.0,4.0,60,0.00,,,-99.99,,2013-04-21 02:22:00,
2013-04-20 22:32:00,35.0,23.0,-100.00,SSW,213,0.0,4.0,60,0.00,,,-99.99,,2013-04-21 02:32:00,
2013-04-20 22:42:00,35.0,25.0,-100.00,West,278,1.0,4.0,62,0.00,,,-99.99,,2013-04-21 02:42:00,
2013-04-20 22:52:00,35.0,25.0,-100.00,NW,309,1.0,4.0,62,0.00,,,-99.99,,2013-04-21 02:52:00,
2013-04-20 23:01:00,36.0,27.0,-100.00,NNW,348,1.0,4.0,66,0.00,,,-99.99,,2013-04-21 03:01:00,
2013-04-20 23:11:00,35.0,27.0,-100.00,NNE,33,1.0,4.0,68,0.00,,,-99.99,,2013-04-21 03:11:00,
2013-04-20 23:22:00,34.0,27.0,-100.00,NNE,29,0.0,4.0,72,0.00,,,-99.99,,2013-04-21 03:22:00,
2013-04-20 23:33:00,33.0,27.0,-100.00,NE,53,0.0,4.0,73,0.00,,,-99.99,,2013-04-21 03:33:00,
2013-04-20 23:42:00,34.0,27.0,-100.00,North,360,0.0,4.0,72,0.00,,,-99.99,,2013-04-21 03:42:00,
2013-04-20 23:52:00,32.0,27.0,-100.00,North,360,0.0,4.0,75,0.00,,,-99.99,,2013-04-21 03:52:00,